createdAt,value
2022-12-06T17:08:22.063Z,2.38
2022-12-06T17:09:19.394Z,2.42
2022-12-06T17:10:19.688Z,2.46
2022-12-06T17:11:19.993Z,2.50
2022-12-06T17:12:20.280Z,2.28
2022-12-06T17:13:22.462Z,2.31
2022-12-06T17:14:20.829Z,2.32
2022-12-06T17:15:21.129Z,2.36
2022-12-06T17:16:21.480Z,2.44
2022-12-06T17:17:21.789Z,2.61
2022-12-06T17:18:23.932Z,2.56
2022-12-06T17:19:24.192Z,2.60
2022-12-06T17:20:22.643Z,2.60
2022-12-06T17:21:22.944Z,2.61
2022-12-06T17:22:23.236Z,2.60
2022-12-06T17:23:25.412Z,2.57
2022-12-06T17:24:25.574Z,2.61
2022-12-06T17:25:24.095Z,2.62
2022-12-06T17:26:24.382Z,2.65
2022-12-06T17:27:24.683Z,2.67
2022-12-06T17:28:26.855Z,2.67
2022-12-06T17:29:25.232Z,2.68
2022-12-06T17:30:25.526Z,2.67
2022-12-06T17:31:25.869Z,2.67
2022-12-06T17:32:26.125Z,2.65
2022-12-06T17:33:29.266Z,2.65
2022-12-06T17:34:26.656Z,2.67
2022-12-06T17:35:30.257Z,2.65
2022-12-06T17:36:28.090Z,2.68
2022-12-06T17:37:29.466Z,2.71
2022-12-06T17:38:28.668Z,2.71
2022-12-06T17:39:29.093Z,2.68
2022-12-06T17:40:29.245Z,2.71
2022-12-06T17:41:29.675Z,2.72
2022-12-06T17:42:30.894Z,2.74
2022-12-06T17:43:29.264Z,2.74
2022-12-06T17:44:29.561Z,2.75
2022-12-06T17:45:29.981Z,2.74
2022-12-06T17:46:33.060Z,2.79
2022-12-06T17:47:33.202Z,2.74
2022-12-06T17:48:36.046Z,2.74
2022-12-06T17:49:32.736Z,2.71
2022-12-06T17:50:32.122Z,2.69
2022-12-06T17:51:32.292Z,2.72
2022-12-06T17:52:33.663Z,2.71
2022-12-06T17:53:32.857Z,2.69
2022-12-06T17:54:34.215Z,2.69
2022-12-06T17:55:33.433Z,2.71
2022-12-06T17:56:33.855Z,2.68
2022-12-06T17:57:35.097Z,2.69
2022-12-06T17:58:33.472Z,2.71
2022-12-06T17:59:33.777Z,2.72
2022-12-06T18:00:34.095Z,2.69
2022-12-06T18:01:58.026Z,2.71
2022-12-06T18:02:36.658Z,2.71
2022-12-06T18:03:35.009Z,2.75
2022-12-06T18:04:35.301Z,2.74
2022-12-06T18:05:35.601Z,2.74
2022-12-06T18:06:37.771Z,2.77
2022-12-06T18:07:36.181Z,2.79
2022-12-06T18:08:36.444Z,2.75
2022-12-06T18:09:36.745Z,2.75
2022-12-06T18:10:37.047Z,2.74
2022-12-06T18:11:37.356Z,2.74
2022-12-06T18:12:39.532Z,2.72
2022-12-06T18:13:39.717Z,2.69
2022-12-06T18:14:39.877Z,2.71
2022-12-06T18:15:40.053Z,2.69
2022-12-06T18:16:40.788Z,2.69
2022-12-06T18:17:40.897Z,2.69
2022-12-06T18:18:41.061Z,2.67
2022-12-06T18:19:41.255Z,2.68
2022-12-06T18:20:41.439Z,2.68
2022-12-06T18:21:41.106Z,2.71
2022-12-06T18:22:41.298Z,2.68
2022-12-06T18:23:59.312Z,2.71
2022-12-06T18:24:42.138Z,2.72
2022-12-06T18:25:41.384Z,2.71
2022-12-06T18:26:41.679Z,2.69
2022-12-06T18:27:43.857Z,2.71
2022-12-06T18:28:42.228Z,2.69
2022-12-06T18:29:42.530Z,2.69
2022-12-06T18:30:42.841Z,2.68
2022-12-06T18:31:45.051Z,2.67
2022-12-06T18:32:43.409Z,2.65
2022-12-06T18:33:45.592Z,2.64
2022-12-06T18:34:43.990Z,2.62
2022-12-06T18:35:44.278Z,2.65
2022-12-06T18:36:46.473Z,2.67
2022-12-06T18:37:44.849Z,2.64
2022-12-06T18:38:45.277Z,2.61
2022-12-06T18:39:47.476Z,2.57
2022-12-06T18:40:45.824Z,2.60
2022-12-06T18:41:47.514Z,2.61
2022-12-06T18:42:46.256Z,2.61
2022-12-06T18:43:48.457Z,2.60
2022-12-06T18:44:46.959Z,2.54
2022-12-06T18:45:47.152Z,2.56
2022-12-06T18:46:49.344Z,2.53
2022-12-06T18:47:47.818Z,2.51
2022-12-06T18:48:47.986Z,2.51
2022-12-06T18:49:48.300Z,2.47
2022-12-06T18:50:48.596Z,2.46
2022-12-06T18:51:50.802Z,2.49
2022-12-06T18:52:49.206Z,2.50
2022-12-06T18:53:49.500Z,2.47
2022-12-06T18:54:51.727Z,2.46
2022-12-06T18:55:50.115Z,2.49
2022-12-06T18:56:51.386Z,2.50
2022-12-06T18:57:50.767Z,2.47
2022-12-06T18:58:51.059Z,2.46
2022-12-06T18:59:53.248Z,2.43
2022-12-06T19:00:51.704Z,2.42
2022-12-06T19:01:52.019Z,2.39
2022-12-06T19:02:52.830Z,2.43
2022-12-06T19:03:53.530Z,2.47
2022-12-06T19:04:54.743Z,2.44
2022-12-06T19:06:02.896Z,2.44
2022-12-06T19:06:54.443Z,2.47
2022-12-06T19:07:55.563Z,2.46
2022-12-06T19:08:53.822Z,2.43
2022-12-06T19:09:56.066Z,2.46
2022-12-06T19:10:54.407Z,2.42
2022-12-06T19:11:54.720Z,2.43
2022-12-06T19:12:55.055Z,2.43
2022-12-06T19:13:55.386Z,2.38
2022-12-06T19:14:56.481Z,2.38
2022-12-06T19:15:55.967Z,2.36
2022-12-06T19:16:56.369Z,2.36
2022-12-06T19:17:56.540Z,2.36
2022-12-06T19:18:56.852Z,2.36
2022-12-06T19:19:59.405Z,2.35
2022-12-06T19:20:58.262Z,2.35
2022-12-06T19:21:57.734Z,2.38
2022-12-06T19:22:58.061Z,2.38
2022-12-06T19:23:58.403Z,2.32
2022-12-06T19:25:00.586Z,2.35
2022-12-06T19:25:58.981Z,2.33
2022-12-06T19:27:01.125Z,2.33
2022-12-06T19:27:59.627Z,2.31
2022-12-06T19:28:59.927Z,2.29
2022-12-06T19:30:02.107Z,2.26
2022-12-06T19:31:00.595Z,2.25
2022-12-06T19:32:00.750Z,2.25
2022-12-06T19:33:01.081Z,2.25
2022-12-06T19:34:01.376Z,2.20
2022-12-06T19:35:08.123Z,2.18
2022-12-06T19:36:01.916Z,2.18
2022-12-06T19:37:02.217Z,2.14
2022-12-06T19:38:02.516Z,2.13
2022-12-06T19:39:04.709Z,2.13
2022-12-06T19:40:04.899Z,2.10
2022-12-06T19:41:03.424Z,2.11
2022-12-06T19:42:04.673Z,2.10
2022-12-06T19:43:04.888Z,2.04
2022-12-06T19:44:05.306Z,2.04
2022-12-06T19:45:08.001Z,2.00
2022-12-06T19:46:04.980Z,2.00
2022-12-06T19:47:06.039Z,1.99
2022-12-06T19:48:05.535Z,1.99
2022-12-06T19:49:06.633Z,1.97
2022-12-06T19:50:07.852Z,1.95
2022-12-06T19:51:07.191Z,1.94
2022-12-06T19:52:07.352Z,1.95
2022-12-06T19:53:07.782Z,1.99
2022-12-06T19:54:08.135Z,1.99
2022-12-06T19:55:09.338Z,1.94
2022-12-06T19:56:07.723Z,1.95
2022-12-06T19:57:08.020Z,1.97
2022-12-06T19:58:08.320Z,1.97
2022-12-06T19:59:08.624Z,1.97
2022-12-06T20:00:09.813Z,2.00
2022-12-06T20:01:09.244Z,2.02
2022-12-06T20:02:11.416Z,2.00
2022-12-06T20:03:11.572Z,2.00
2022-12-06T20:04:11.031Z,1.99
2022-12-06T20:05:12.257Z,1.95
2022-12-06T20:06:15.140Z,1.95
2022-12-06T20:07:11.959Z,1.94
2022-12-06T20:08:13.223Z,1.95
2022-12-06T20:09:11.439Z,1.94
2022-12-06T20:10:15.073Z,1.92
2022-12-06T20:11:13.812Z,1.95
2022-12-06T20:12:12.314Z,1.97
2022-12-06T20:13:12.627Z,1.97
2022-12-06T20:14:12.920Z,1.97
2022-12-06T20:15:13.238Z,1.99
2022-12-06T20:16:15.462Z,1.95
2022-12-06T20:17:13.873Z,1.97
2022-12-06T20:18:14.181Z,1.95
2022-12-06T20:19:14.484Z,1.95
2022-12-06T20:20:14.782Z,1.95
2022-12-06T20:21:16.979Z,1.97
2022-12-06T20:22:15.365Z,2.00
2022-12-06T20:23:15.671Z,1.99
2022-12-06T20:24:15.993Z,2.07
2022-12-06T20:25:18.168Z,2.08
2022-12-06T20:26:16.546Z,2.11
2022-12-06T20:27:16.866Z,2.15
2022-12-06T20:28:17.182Z,2.18
2022-12-06T20:29:19.355Z,2.26
2022-12-06T20:30:19.531Z,2.26
2022-12-06T20:31:19.784Z,2.28
2022-12-06T20:32:18.320Z,2.32
2022-12-06T20:33:20.645Z,2.32
2022-12-06T20:34:19.819Z,2.33
2022-12-06T20:35:21.011Z,2.35
2022-12-06T20:36:19.539Z,2.36
2022-12-06T20:37:19.844Z,2.33
2022-12-06T20:38:22.017Z,2.38
2022-12-06T20:39:20.405Z,2.36
2022-12-06T20:40:20.703Z,2.35
2022-12-06T20:41:21.009Z,2.31
2022-12-06T20:42:21.308Z,2.29
2022-12-06T20:43:23.488Z,2.29
2022-12-06T20:44:21.870Z,2.31
2022-12-06T20:45:24.065Z,2.33
2022-12-06T20:46:22.534Z,2.36
2022-12-06T20:47:22.693Z,2.36
2022-12-06T20:48:22.991Z,2.35
2022-12-06T20:49:23.305Z,2.36
2022-12-06T20:50:25.474Z,2.36
2022-12-06T20:51:23.906Z,2.36
2022-12-06T20:52:24.079Z,2.38
2022-12-06T20:53:24.395Z,2.38
2022-12-06T20:54:26.574Z,2.38
2022-12-06T20:55:26.764Z,2.44
2022-12-06T20:56:25.258Z,2.47
2022-12-06T20:57:25.563Z,2.39
2022-12-06T20:58:25.863Z,2.42
2022-12-06T20:59:26.178Z,2.44
2022-12-06T21:00:28.358Z,2.49
2022-12-06T21:01:26.789Z,2.51
2022-12-06T21:02:27.133Z,2.53
2022-12-06T21:03:29.246Z,2.53
2022-12-06T21:04:27.618Z,2.50
2022-12-06T21:05:27.925Z,2.46
2022-12-06T21:06:28.221Z,2.43
2022-12-06T21:07:30.414Z,2.43
2022-12-06T21:08:28.786Z,2.46
2022-12-06T21:09:29.098Z,2.49
2022-12-06T21:10:29.395Z,2.50
2022-12-06T21:11:29.695Z,2.44
2022-12-06T21:12:31.886Z,2.35
2022-12-06T21:13:30.260Z,2.24
2022-12-06T21:14:30.559Z,2.24
2022-12-06T21:15:30.880Z,2.25
2022-12-06T21:16:31.247Z,2.29
2022-12-06T21:17:33.136Z,2.38
2022-12-06T21:18:31.753Z,2.35
2022-12-06T21:19:32.057Z,2.29
2022-12-06T21:20:32.362Z,2.15
2022-12-06T21:21:32.678Z,2.10
2022-12-06T21:22:35.797Z,2.07
2022-12-06T21:23:35.536Z,2.20
2022-12-06T21:24:34.361Z,2.50
2022-12-06T21:25:34.778Z,2.65
2022-12-06T21:26:34.136Z,2.75
2022-12-06T21:27:36.361Z,2.86
2022-12-06T21:28:34.747Z,2.89
2022-12-06T21:29:35.581Z,2.92
2022-12-06T21:30:35.306Z,3.01
2022-12-06T21:31:35.704Z,3.05
2022-12-06T21:32:39.236Z,3.07
2022-12-06T21:33:36.148Z,3.05
2022-12-06T21:34:45.841Z,3.08
2022-12-06T21:35:38.746Z,3.10
2022-12-06T21:36:38.086Z,3.11
2022-12-06T21:37:39.303Z,3.16
2022-12-06T21:38:38.646Z,3.19
2022-12-06T21:39:38.814Z,3.25
2022-12-06T21:40:39.227Z,3.29
2022-12-06T21:41:39.610Z,3.29
2022-12-06T21:42:39.799Z,3.34
2022-12-06T21:43:39.964Z,3.37
2022-12-06T21:44:39.451Z,3.42
2022-12-06T21:45:39.766Z,3.45
2022-12-06T21:46:42.028Z,3.45
2022-12-06T21:47:40.400Z,3.45
2022-12-06T21:48:41.534Z,3.47
2022-12-06T21:49:41.944Z,3.51
2022-12-06T21:50:42.110Z,3.53
2022-12-06T21:51:42.522Z,3.51
2022-12-06T21:52:43.798Z,3.50
2022-12-06T21:53:43.999Z,3.48
2022-12-06T21:54:42.509Z,3.47
2022-12-06T21:55:44.692Z,3.44
2022-12-06T21:56:43.072Z,3.40
2022-12-06T21:57:43.384Z,3.41
2022-12-06T21:58:43.685Z,3.42
2022-12-06T21:59:45.880Z,3.45
2022-12-06T22:00:44.250Z,3.44
2022-12-06T22:01:45.498Z,3.47
2022-12-06T22:02:44.897Z,3.50
2022-12-06T22:03:47.030Z,3.41
2022-12-06T22:04:47.218Z,3.37
2022-12-06T22:05:47.408Z,3.34
2022-12-06T22:06:47.585Z,3.26
2022-12-06T22:07:48.317Z,3.26
2022-12-06T22:08:48.462Z,3.25
2022-12-06T22:09:48.667Z,3.22
2022-12-06T22:10:47.164Z,3.22
2022-12-06T22:11:49.357Z,3.23
2022-12-06T22:12:47.724Z,3.19
2022-12-06T22:13:48.063Z,3.11
2022-12-06T22:14:48.260Z,3.10
2022-12-06T22:15:48.602Z,3.11
2022-12-06T22:16:50.735Z,3.11
2022-12-06T22:17:49.127Z,3.14
2022-12-06T22:18:49.425Z,3.23
2022-12-06T22:19:49.744Z,3.25
2022-12-06T22:20:50.049Z,3.25
2022-12-06T22:21:52.249Z,3.23
2022-12-06T22:22:50.629Z,3.21
2022-12-06T22:23:52.809Z,3.21
2022-12-06T22:24:51.195Z,3.25
2022-12-06T22:25:53.384Z,3.25
2022-12-06T22:26:51.769Z,3.26
2022-12-06T22:27:53.959Z,3.26
2022-12-06T22:28:52.329Z,3.26
2022-12-06T22:29:54.506Z,3.32
2022-12-06T22:30:52.914Z,3.36
2022-12-06T22:31:55.194Z,3.44
